Time;durP1;ratioP1;P1;durP2;ratioP2;P2;SDS_P1;SDS_P2;PMS_P1;PMS_P2;Temp;Humidity;BMP_temperature;BMP_pressure;BME280_temperature;BME280_humidity;BME280_pressure;Samples;Min_cycle;Max_cycle;Signal;HPM_P1;HPM_P2
2023/09/12 00:03:48;;;;;;;5.43;2.45;;;;;;;21.78;63.63;100038.09;10228203;28;20115;-79
2023/09/12 00:08:52;;;;;;;2.47;2.28;;;;;;;21.76;63.51;100040.19;10233978;28;20051;-80
2023/09/12 00:13:55;;;;;;;3.63;2.65;;;;;;;21.71;63.45;100039.94;10240582;28;20111;-78
2023/09/12 00:19:00;;;;;;;3.20;2.30;;;;;;;21.60;64.03;100033.16;10265446;28;20071;-78
2023/09/12 00:24:03;;;;;;;2.35;2.17;;;;;;;21.49;64.41;100039.22;10259388;28;21620;-77
2023/09/12 00:29:06;;;;;;;3.08;2.53;;;;;;;21.09;65.92;100031.69;10262518;28;20046;-78
2023/09/12 00:34:10;;;;;;;4.90;2.80;;;;;;;20.83;67.48;100026.88;10262095;28;20611;-79
2023/09/12 00:39:13;;;;;;;2.97;2.47;;;;;;;21.23;66.50;100027.16;10262474;28;20054;-78
2023/09/12 00:44:16;;;;;;;6.22;2.53;;;;;;;21.54;65.21;100014.88;10259367;28;20549;-78
2023/09/12 00:49:22;;;;;;;4.93;3.38;;;;;;;21.54;64.64;100012.13;10261005;28;20055;-77
2023/09/12 00:54:26;;;;;;;4.35;2.63;;;;;;;21.19;65.82;100004.84;10258198;28;20469;-78
2023/09/12 00:59:29;;;;;;;4.72;2.50;;;;;;;20.45;68.95;100020.94;10235536;28;21309;-78
2023/09/12 01:04:33;;;;;;;3.47;2.70;;;;;;;20.63;68.67;100042.28;10225114;28;20065;-78
2023/09/12 01:09:37;;;;;;;4.40;3.10;;;;;;;20.45;69.67;100059.13;10227118;28;20082;-78
2023/09/12 01:14:41;;;;;;;4.43;2.88;;;;;;;20.03;71.23;100098.97;10215577;28;20380;-79
2023/09/12 01:19:46;;;;;;;3.63;3.30;;;;;;;20.51;69.75;100083.72;10228227;28;20062;-77
2023/09/12 01:25:29;;;;;;;4.88;3.85;;;;;;;20.74;69.32;100115.44;10242336;28;20057;-77
2023/09/12 01:30:36;;;;;;;8.15;6.25;;;;;;;20.92;69.08;100093.91;10220254;28;20055;-77
2023/09/12 01:35:39;;;;;;;9.55;8.10;;;;;;;21.02;69.15;100077.19;10228578;28;20062;-77
2023/09/12 01:40:47;;;;;;;14.48;10.00;;;;;;;20.89;70.17;100077.09;10242854;28;20419;-77
2023/09/12 01:45:54;;;;;;;13.85;12.25;;;;;;;20.92;70.57;100063.88;10224075;28;20082;-77
2023/09/12 01:50:58;;;;;;;19.17;11.82;;;;;;;21.00;71.12;100079.28;10237732;28;20057;-79
2023/09/12 01:56:01;;;;;;;15.65;13.43;;;;;;;21.01;71.20;100064.59;10232267;28;20257;-78
2023/09/12 02:01:06;;;;;;;14.05;12.48;;;;;;;21.08;71.40;100076.41;10251249;28;20491;-78
2023/09/12 02:06:09;;;;;;;15.32;11.93;;;;;;;21.19;71.35;100070.38;10237437;28;20533;-77
2023/09/12 02:11:12;;;;;;;14.70;12.82;;;;;;;20.64;72.79;100073.97;10239786;28;20046;-77
2023/09/12 02:16:16;;;;;;;18.33;14.35;;;;;;;20.43;74.07;100074.84;10255625;28;20057;-77
2023/09/12 02:21:19;;;;;;;14.70;12.77;;;;;;;20.49;74.34;100079.53;10259452;28;20055;-77
2023/09/12 02:26:22;;;;;;;16.80;13.27;;;;;;;20.07;75.41;100103.84;10242085;28;20058;-78
2023/09/12 02:31:27;;;;;;;18.52;15.32;;;;;;;19.51;79.06;100141.72;10231299;28;20043;-79
2023/09/12 02:36:31;;;;;;;22.45;17.35;;;;;;;19.03;82.96;100206.53;10223949;28;20256;-79
2023/09/12 02:41:34;;;;;;;29.02;22.67;;;;;;;19.38;82.70;100205.00;10230109;28;20043;-78
2023/09/12 02:46:38;;;;;;;28.45;21.58;;;;;;;19.34;82.86;100200.13;10223348;28;20154;-78
2023/09/12 02:51:41;;;;;;;34.50;22.45;;;;;;;19.71;81.09;100201.94;10222464;28;20062;-77
2023/09/12 02:56:45;;;;;;;26.27;21.77;;;;;;;20.19;78.04;100157.88;10242074;28;20047;-78
2023/09/12 03:01:49;;;;;;;29.02;22.10;;;;;;;20.54;76.05;100082.50;10222631;28;20051;-76
2023/09/12 03:06:52;;;;;;;30.67;21.50;;;;;;;20.58;75.19;100053.78;10223731;28;20538;-78
2023/09/12 03:11:55;;;;;;;25.70;21.73;;;;;;;20.50;75.54;100023.94;10226112;28;20051;-78
2023/09/12 03:16:59;;;;;;;27.48;21.55;;;;;;;20.40;75.85;100016.06;10265102;28;20075;-77
2023/09/12 03:22:02;;;;;;;25.83;19.95;;;;;;;20.53;75.66;100026.25;10272742;28;20590;-79
2023/09/12 03:27:05;;;;;;;22.30;18.83;;;;;;;20.62;75.39;100048.78;10232693;28;20051;-79
2023/09/12 03:32:10;;;;;;;22.98;19.90;;;;;;;20.71;74.98;100059.34;10251174;28;20043;-79
2023/09/12 03:37:13;;;;;;;26.65;19.92;;;;;;;20.53;75.41;100048.91;10232836;28;20727;-79
2023/09/12 03:42:16;;;;;;;21.15;18.30;;;;;;;20.24;76.38;100069.00;10231723;28;20438;-79
2023/09/12 03:47:20;;;;;;;22.05;18.73;;;;;;;20.44;75.68;100076.56;10238277;28;20109;-79
2023/09/12 03:52:24;;;;;;;21.92;17.08;;;;;;;20.04;76.27;100109.69;10239278;28;20051;-78
2023/09/12 03:57:27;;;;;;;21.70;16.02;;;;;;;19.62;77.58;100168.50;10236010;28;20062;-77
2023/09/12 04:02:31;;;;;;;16.45;14.75;;;;;;;19.87;76.72;100143.66;10257457;28;20152;-78
2023/09/12 04:07:34;;;;;;;17.27;14.32;;;;;;;20.15;75.26;100156.56;10250996;28;20050;-77
2023/09/12 04:12:37;;;;;;;14.13;12.63;;;;;;;20.31;74.01;100142.72;10267215;28;20051;-77
2023/09/12 04:17:41;;;;;;;15.68;12.88;;;;;;;20.25;74.35;100152.50;10236264;28;20054;-78
2023/09/12 04:22:44;;;;;;;18.67;14.35;;;;;;;20.11;78.65;100098.88;10230501;28;20123;-79
2023/09/12 04:27:48;;;;;;;17.50;14.20;;;;;;;19.67;79.50;100078.03;10256939;28;20046;-78
2023/09/12 04:32:52;;;;;;;15.00;11.23;;;;;;;19.94;78.09;100094.66;10249485;28;20047;-76
2023/09/12 04:37:55;;;;;;;12.70;10.85;;;;;;;19.79;77.04;100109.19;10280384;28;20055;-77
2023/09/12 04:42:59;;;;;;;15.10;12.93;;;;;;;19.97;77.63;100113.41;10230381;28;20043;-78
2023/09/12 04:48:04;;;;;;;19.10;13.38;;;;;;;19.73;78.67;100128.19;10249259;28;20046;-79
2023/09/12 04:53:07;;;;;;;66.93;18.95;;;;;;;17.75;99.38;100113.75;10239691;28;20050;-78
2023/09/12 04:58:10;;;;;;;52.13;19.05;;;;;;;17.27;100.00;100127.34;10239298;28;20054;-78
2023/09/12 05:03:14;;;;;;;20.35;14.10;;;;;;;16.84;100.00;100167.44;10248671;28;20092;-78
2023/09/12 05:08:19;;;;;;;59.30;13.23;;;;;;;16.86;100.00;100121.13;10238933;28;20054;-78
2023/09/12 05:13:22;;;;;;;30.30;12.57;;;;;;;17.04;100.00;100089.22;10244170;28;20054;-79
2023/09/12 05:18:26;;;;;;;13.85;9.82;;;;;;;16.67;100.00;100106.91;10238983;28;20696;-77
2023/09/12 05:23:29;;;;;;;19.63;11.40;;;;;;;16.72;100.00;100119.97;10250696;28;20588;-77
2023/09/12 05:28:32;;;;;;;21.92;11.75;;;;;;;16.90;100.00;100088.06;10232658;28;20047;-77
2023/09/12 05:33:37;;;;;;;16.95;10.85;;;;;;;16.88;100.00;100081.97;10230202;28;20535;-77
2023/09/12 05:38:40;;;;;;;12.75;9.10;;;;;;;16.94;100.00;100100.25;10232772;28;20040;-79
2023/09/12 05:43:44;;;;;;;14.98;10.43;;;;;;;17.06;100.00;100103.47;10262828;28;20106;-77
2023/09/12 05:48:48;;;;;;;66.13;12.93;;;;;;;17.10;100.00;100072.25;10235268;28;20145;-80
2023/09/12 05:53:51;;;;;;;26.42;13.30;;;;;;;17.32;100.00;100065.25;10239032;28;20054;-79
2023/09/12 05:58:55;;;;;;;20.05;13.88;;;;;;;17.46;100.00;100069.91;10225389;28;20043;-77
2023/09/12 06:03:59;;;;;;;20.10;12.65;;;;;;;17.48;100.00;100019.00;10231150;28;20062;-77
2023/09/12 06:09:03;;;;;;;26.52;14.00;;;;;;;17.63;100.00;100050.81;10211608;28;20062;-78
2023/09/12 06:14:06;;;;;;;19.45;14.68;;;;;;;17.72;100.00;100022.59;10230477;28;20058;-78
2023/09/12 06:19:10;;;;;;;17.70;11.68;;;;;;;17.56;98.99;100064.28;10218324;28;20050;-78
2023/09/12 06:24:15;;;;;;;18.30;12.32;;;;;;;17.47;100.00;100028.19;10228976;28;20055;-78
2023/09/12 06:29:18;;;;;;;19.27;11.55;;;;;;;17.96;100.00;100023.44;10241228;28;20051;-78
2023/09/12 06:34:22;;;;;;;10.35;8.07;;;;;;;17.98;100.00;100005.13;10242400;28;20047;-77
2023/09/12 06:39:25;;;;;;;13.43;8.73;;;;;;;17.57;100.00;100033.38;10227584;28;20604;-78
2023/09/12 06:44:28;;;;;;;14.38;9.05;;;;;;;17.86;100.00;100019.09;10229919;28;20055;-78
2023/09/12 06:49:33;;;;;;;10.68;8.50;;;;;;;18.02;100.00;100020.03;10237927;28;20604;-78
2023/09/12 06:54:37;;;;;;;12.35;8.23;;;;;;;17.92;100.00;100012.94;10236182;28;20046;-78
2023/09/12 06:59:42;;;;;;;13.68;9.02;;;;;;;17.99;100.00;100039.41;10238899;28;20121;-78
2023/09/12 07:04:46;;;;;;;16.67;12.00;;;;;;;17.75;100.00;100070.31;10229782;28;20050;-77
2023/09/12 07:09:49;;;;;;;27.45;12.82;;;;;;;17.14;100.00;100137.91;10237239;28;20059;-78
2023/09/12 07:14:52;;;;;;;48.05;13.48;;;;;;;16.86;100.00;100119.25;10237934;28;20069;-78
2023/09/12 07:19:57;;;;;;;103.70;17.70;;;;;;;16.88;100.00;100081.97;10242283;28;20042;-78
2023/09/12 07:25:00;;;;;;;24.33;16.08;;;;;;;16.80;100.00;100098.25;10239009;28;20047;-79
2023/09/12 07:30:04;;;;;;;26.60;15.55;;;;;;;16.87;100.00;100142.69;10241794;28;20054;-77
2023/09/12 07:35:09;;;;;;;24.50;16.67;;;;;;;16.92;100.00;100148.44;10256737;28;20053;-76
2023/09/12 07:40:12;;;;;;;30.38;16.70;;;;;;;16.99;100.00;100168.41;10264760;28;20466;-77
2023/09/12 07:45:15;;;;;;;21.58;13.95;;;;;;;16.59;100.00;100164.72;10220951;28;20051;-79
2023/09/12 07:50:19;;;;;;;20.50;12.68;;;;;;;16.83;100.00;100141.31;10225779;28;20065;-79
2023/09/12 07:55:22;;;;;;;27.88;16.38;;;;;;;16.91;100.00;100192.84;10217884;28;20063;-77
2023/09/12 08:00:25;;;;;;;202.73;21.85;;;;;;;16.68;100.00;100152.00;10238891;28;20055;-81
2023/09/12 08:05:29;;;;;;;32.70;12.60;;;;;;;16.30;100.00;100146.22;10234505;28;20051;-79
2023/09/12 08:10:33;;;;;;;136.85;18.35;;;;;;;16.10;100.00;100139.41;10249810;28;20047;-80
2023/09/12 08:15:36;;;;;;;20.48;12.73;;;;;;;16.21;100.00;100177.00;10231024;28;20046;-81
2023/09/12 08:20:41;;;;;;;43.50;14.52;;;;;;;16.05;100.00;100252.81;10228599;28;20090;-77
2023/09/12 08:25:43;;;;;;;37.75;14.10;;;;;;;15.93;100.00;100274.78;10229992;28;20074;-76
2023/09/12 08:30:46;;;;;;;29.80;13.98;;;;;;;16.04;100.00;100289.88;10233730;28;20050;-77
2023/09/12 08:35:51;;;;;;;37.47;16.33;;;;;;;16.42;100.00;100271.44;10260813;28;20118;-79
2023/09/12 08:40:54;;;;;;;37.63;15.32;;;;;;;16.51;100.00;100262.31;10241655;28;20055;-79
2023/09/12 08:45:57;;;;;;;23.90;13.25;;;;;;;16.45;100.00;100265.69;10238460;28;20051;-78
2023/09/12 08:51:03;;;;;;;18.52;12.70;;;;;;;16.48;100.00;100273.50;10236884;28;20055;-81
2023/09/12 08:56:06;;;;;;;25.70;15.32;;;;;;;16.78;100.00;100304.59;10233346;28;20059;-79
2023/09/12 09:01:13;;;;;;;23.35;13.95;;;;;;;16.89;100.00;100278.13;10233651;28;20055;-80
2023/09/12 09:06:20;;;;;;;25.75;15.90;;;;;;;17.10;100.00;100250.50;10226186;28;20804;-78
2023/09/12 09:11:27;;;;;;;23.77;15.00;;;;;;;17.02;100.00;100259.47;10239151;28;20078;-77
2023/09/12 09:16:31;;;;;;;24.55;14.93;;;;;;;17.14;100.00;100257.31;10233292;28;20086;-78
2023/09/12 09:21:36;;;;;;;22.98;14.65;;;;;;;17.13;100.00;100202.19;10233202;28;20210;-78
2023/09/12 09:26:44;;;;;;;25.15;14.43;;;;;;;17.01;100.00;100258.66;10223260;28;20047;-80
2023/09/12 09:31:49;;;;;;;25.88;13.38;;;;;;;17.21;100.00;100256.47;10226237;28;20062;-78
2023/09/12 09:36:54;;;;;;;21.05;13.43;;;;;;;17.38;100.00;100238.28;10238800;28;20057;-79
2023/09/12 09:41:58;;;;;;;18.05;12.88;;;;;;;17.51;100.00;100256.75;10238899;28;20063;-78
2023/09/12 09:47:02;;;;;;;25.08;13.57;;;;;;;17.26;100.00;100266.81;10225203;28;20054;-78
2023/09/12 09:52:10;;;;;;;24.83;13.43;;;;;;;17.24;100.00;100209.13;10230111;28;20073;-81
2023/09/12 09:57:13;;;;;;;24.10;13.63;;;;;;;17.24;100.00;100200.97;10228494;28;21210;-78
2023/09/12 10:02:22;;;;;;;22.40;13.18;;;;;;;17.21;100.00;100195.91;10231991;28;20665;-78
2023/09/12 10:07:28;;;;;;;21.00;12.30;;;;;;;17.33;100.00;100226.25;10235670;28;20047;-78
2023/09/12 10:12:32;;;;;;;28.98;12.90;;;;;;;17.10;100.00;100234.22;10232836;28;20058;-78
2023/09/12 10:17:38;;;;;;;26.30;12.60;;;;;;;17.14;100.00;100260.03;10234038;28;20046;-78
2023/09/12 10:22:48;;;;;;;20.15;13.00;;;;;;;17.29;100.00;100236.59;10233365;28;20054;-78
2023/09/12 10:27:53;;;;;;;26.73;13.80;;;;;;;16.99;100.00;100229.97;10234323;28;20043;-77
2023/09/12 10:32:58;;;;;;;16.20;12.80;;;;;;;17.14;100.00;100235.59;10235260;28;20047;-79
2023/09/12 10:38:04;;;;;;;21.13;12.63;;;;;;;17.18;100.00;100254.09;10255677;28;20054;-78
2023/09/12 10:43:09;;;;;;;21.48;11.55;;;;;;;17.08;100.00;100257.97;10239418;28;20763;-78
2023/09/12 10:48:12;;;;;;;33.72;11.90;;;;;;;17.14;100.00;100246.44;10231573;28;20580;-79
2023/09/12 10:53:17;;;;;;;19.80;11.55;;;;;;;16.88;100.00;100228.47;10235210;28;20050;-78
2023/09/12 10:58:20;;;;;;;19.67;10.60;;;;;;;17.10;100.00;100216.06;10233769;28;20537;-76
2023/09/12 11:03:42;;;;;;;18.70;11.40;;;;;;;17.32;100.00;100211.00;10219741;28;20058;-76
2023/09/12 11:09:22;;;;;;;17.27;11.52;;;;;;;17.25;100.00;100202.66;10211134;28;20519;-78
2023/09/12 11:14:26;;;;;;;13.30;9.23;;;;;;;17.46;100.00;100200.25;10212927;28;20202;-77
2023/09/12 11:19:29;;;;;;;9.32;7.22;;;;;;;17.75;100.00;100196.09;10206017;28;20047;-77
2023/09/12 11:24:44;;;;;;;11.43;8.18;;;;;;;18.00;100.00;100193.31;10216899;28;20042;-77
2023/09/12 11:29:48;;;;;;;10.23;7.13;;;;;;;18.66;100.00;100183.69;10213808;28;21218;-76
2023/09/12 11:34:51;;;;;;;8.38;6.30;;;;;;;20.01;100.00;100180.94;10214246;28;20039;-77
2023/09/12 11:39:57;;;;;;;5.03;3.60;;;;;;;21.42;100.00;100184.84;10220897;28;20059;-77
2023/09/12 11:45:00;;;;;;;3.28;2.97;;;;;;;21.92;100.00;100181.16;10224022;28;20094;-77
2023/09/12 11:50:03;;;;;;;2.90;2.60;;;;;;;22.05;100.00;100192.13;10222620;28;20535;-77
2023/09/12 11:55:08;;;;;;;3.17;2.40;;;;;;;22.96;100.00;100183.50;10224223;28;20201;-77
2023/09/12 12:00:12;;;;;;;5.30;2.10;;;;;;;22.75;100.00;100187.28;10228942;28;20075;-77
2023/09/12 12:05:15;;;;;;;6.03;2.83;;;;;;;22.36;100.00;100183.41;10228583;28;20089;-77
2023/09/12 12:10:20;;;;;;;2.70;2.50;;;;;;;22.77;100.00;100190.66;10234074;28;20071;-76
2023/09/12 12:15:23;;;;;;;2.85;2.40;;;;;;;22.95;100.00;100185.38;10233258;28;20246;-77
2023/09/12 12:20:27;;;;;;;2.47;2.28;;;;;;;23.88;100.00;100184.44;10233664;28;20055;-76
2023/09/12 12:25:34;;;;;;;2.78;2.50;;;;;;;23.55;97.74;100170.78;10232439;28;20055;-76
2023/09/12 12:30:38;;;;;;;3.65;2.60;;;;;;;24.04;97.43;100164.72;10227808;28;20054;-77
2023/09/12 12:35:41;;;;;;;2.60;2.38;;;;;;;23.56;100.00;100162.38;10235006;28;20129;-77
2023/09/12 12:40:57;;;;;;;2.83;2.33;;;;;;;23.02;96.53;100168.13;10236907;28;20426;-77
2023/09/12 12:46:00;;;;;;;3.33;2.33;;;;;;;23.73;93.87;100153.66;10219024;28;20058;-77
2023/09/12 12:51:16;;;;;;;2.75;2.33;;;;;;;24.69;100.00;100147.28;10219072;28;20055;-76
2023/09/12 12:56:22;;;;;;;3.55;2.40;;;;;;;24.76;100.00;100146.13;10214809;28;20526;-77
2023/09/12 13:01:25;;;;;;;2.85;2.25;;;;;;;26.03;99.04;100142.09;10212326;28;20070;-77
2023/09/12 13:06:29;;;;;;;4.63;2.25;;;;;;;25.35;78.79;100148.59;10216233;28;20054;-77
2023/09/12 13:11:35;;;;;;;3.88;2.38;;;;;;;25.37;85.55;100151.97;10224018;28;20178;-77
2023/09/12 13:16:40;;;;;;;4.85;2.28;;;;;;;25.28;87.59;100137.66;10237015;28;20055;-77
2023/09/12 13:21:43;;;;;;;4.88;2.45;;;;;;;25.82;89.52;100126.91;10236923;28;20042;-78
2023/09/12 13:26:48;;;;;;;2.35;2.15;;;;;;;25.92;86.40;100129.97;10237640;28;20434;-78
2023/09/12 13:31:51;;;;;;;2.28;2.08;;;;;;;26.73;86.01;100127.72;10233540;28;21167;-77
2023/09/12 13:36:54;;;;;;;2.78;2.22;;;;;;;27.31;74.30;100120.56;10243522;28;20051;-76
2023/09/12 13:42:18;;;;;;;2.97;2.78;;;;;;;26.06;64.42;100136.13;10226689;28;20096;-78
2023/09/12 13:47:22;;;;;;;5.10;2.88;;;;;;;26.54;66.16;100124.22;10231965;28;20051;-78
2023/09/12 13:52:27;;;;;;;2.45;2.25;;;;;;;27.06;71.58;100110.63;10236083;28;20527;-78
2023/09/12 13:57:31;;;;;;;2.22;2.03;;;;;;;27.66;75.44;100117.78;10272013;28;20100;-77
2023/09/12 14:02:41;;;;;;;3.92;2.70;;;;;;;27.76;68.04;100129.03;10240061;28;20575;-78
2023/09/12 14:07:44;;;;;;;2.72;2.53;;;;;;;27.95;72.38;100115.06;10231132;28;20042;-77
2023/09/12 14:12:49;;;;;;;3.75;2.40;;;;;;;28.06;68.16;100119.72;10228919;28;20087;-77
2023/09/12 14:17:52;;;;;;;3.65;3.00;;;;;;;27.33;74.48;100121.16;10227366;28;20058;-78
2023/09/12 14:22:59;;;;;;;3.53;3.22;;;;;;;26.83;66.31;100116.16;10225021;28;20130;-77
2023/09/12 14:28:05;;;;;;;2.97;2.67;;;;;;;26.91;73.88;100102.03;10219970;28;20051;-77
2023/09/12 14:33:08;;;;;;;4.07;3.15;;;;;;;26.82;60.73;100101.53;10218445;28;20047;-77
2023/09/12 14:38:11;;;;;;;3.30;3.00;;;;;;;26.62;69.47;100101.00;10211638;28;21350;-77
2023/09/12 14:43:15;;;;;;;3.50;3.00;;;;;;;26.52;69.32;100090.56;10243917;28;20063;-78
2023/09/12 14:48:18;;;;;;;4.53;2.55;;;;;;;26.70;69.08;100082.19;10229439;28;20454;-77
2023/09/12 14:53:21;;;;;;;2.90;2.70;;;;;;;26.49;67.14;100085.53;10253163;28;20061;-76
2023/09/12 14:58:25;;;;;;;3.25;2.83;;;;;;;26.22;67.87;100088.69;10233703;28;20055;-77
2023/09/12 15:03:28;;;;;;;4.00;2.78;;;;;;;25.98;66.65;100086.94;10229135;28;20051;-77
2023/09/12 15:08:31;;;;;;;3.08;2.78;;;;;;;25.74;66.06;100084.06;10239064;28;20059;-77
2023/09/12 15:13:35;;;;;;;2.78;2.58;;;;;;;25.60;65.66;100091.63;10232970;28;20043;-77
2023/09/12 15:18:40;;;;;;;3.75;2.78;;;;;;;26.15;63.43;100092.59;10232468;28;20074;-77
2023/09/12 15:23:43;;;;;;;2.65;2.45;;;;;;;26.39;60.34;100091.63;10231691;28;20047;-77
2023/09/12 15:28:48;;;;;;;2.80;2.60;;;;;;;26.63;58.04;100075.13;10228424;28;20609;-77
2023/09/12 15:33:51;;;;;;;3.20;2.97;;;;;;;27.02;56.89;100072.78;10228585;28;20051;-77
2023/09/12 15:38:54;;;;;;;3.28;2.97;;;;;;;27.17;55.67;100076.69;10221977;28;20626;-77
2023/09/12 15:43:58;;;;;;;2.40;2.20;;;;;;;27.28;55.36;100066.75;10231184;28;20062;-77
2023/09/12 15:49:16;;;;;;;3.20;3.00;;;;;;;27.46;54.45;100062.19;10236969;28;20122;-77
2023/09/12 15:54:19;;;;;;;2.78;2.58;;;;;;;27.23;55.24;100052.00;10228039;28;20047;-77
2023/09/12 15:59:25;;;;;;;5.03;2.80;;;;;;;27.04;55.57;100046.66;10228194;28;20149;-78
2023/09/12 16:04:28;;;;;;;3.58;3.05;;;;;;;26.69;56.91;100036.47;10228196;28;20061;-80
2023/09/12 16:09:31;;;;;;;3.13;2.30;;;;;;;26.40;57.69;100037.41;10225426;28;20400;-79
2023/09/12 16:14:35;;;;;;;3.38;3.08;;;;;;;26.29;57.88;100036.28;10236491;28;20101;-77
2023/09/12 16:19:38;;;;;;;3.78;3.20;;;;;;;26.12;57.72;100032.53;10227909;28;20047;-76
2023/09/12 16:24:41;;;;;;;3.13;2.78;;;;;;;25.34;59.82;100032.31;10231673;28;20531;-77
2023/09/12 16:29:45;;;;;;;4.25;2.80;;;;;;;25.04;61.21;100039.63;10225166;28;20046;-78
2023/09/12 16:34:48;;;;;;;3.65;3.35;;;;;;;24.71;61.99;100044.38;10231327;28;20047;-78
2023/09/12 16:39:51;;;;;;;3.38;3.08;;;;;;;24.27;63.99;100059.06;10232005;28;20432;-78
2023/09/12 16:44:59;;;;;;;4.20;3.13;;;;;;;23.93;65.10;100057.63;10254644;28;20507;-80
2023/09/12 16:50:02;;;;;;;4.28;3.70;;;;;;;23.85;65.41;100069.69;10243022;28;20051;-77
2023/09/12 16:55:05;;;;;;;3.63;3.33;;;;;;;23.64;65.92;100077.16;10239977;28;20059;-80
2023/09/12 17:00:11;;;;;;;4.82;3.60;;;;;;;23.29;67.37;100075.81;10241399;28;20051;-79
2023/09/12 17:05:14;;;;;;;4.00;3.60;;;;;;;22.93;68.97;100063.44;10241411;28;20055;-78
2023/09/12 17:10:17;;;;;;;7.50;4.20;;;;;;;22.77;69.77;100073.75;10238308;28;20498;-78
2023/09/12 17:15:24;;;;;;;4.50;3.90;;;;;;;22.55;70.42;100064.09;10242516;28;21300;-77
2023/09/12 17:20:27;;;;;;;5.45;3.55;;;;;;;22.20;71.41;100075.19;10236329;28;20066;-80
2023/09/12 17:25:30;;;;;;;4.45;4.07;;;;;;;21.99;72.64;100070.72;10240754;28;20058;-77
2023/09/12 17:30:38;;;;;;;4.15;3.85;;;;;;;21.83;73.44;100082.91;10253777;28;20053;-78
2023/09/12 17:35:41;;;;;;;5.00;4.60;;;;;;;21.73;73.83;100087.88;10235996;28;20054;-78
2023/09/12 17:40:45;;;;;;;5.47;4.18;;;;;;;21.58;74.39;100090.75;10233295;28;20098;-80
2023/09/12 17:45:52;;;;;;;7.00;4.50;;;;;;;21.40;75.28;100079.53;10244422;28;20051;-80
2023/09/12 17:51:12;;;;;;;5.78;4.60;;;;;;;21.21;76.16;100078.41;10226067;28;20191;-81
2023/09/12 17:56:15;;;;;;;5.28;4.70;;;;;;;21.07;77.05;100084.81;10226812;28;20054;-78
2023/09/12 18:01:19;;;;;;;5.93;5.05;;;;;;;21.02;77.46;100082.66;10222692;28;20055;-78
2023/09/12 18:06:22;;;;;;;5.43;4.68;;;;;;;20.95;77.88;100099.00;10213511;28;20065;-75
2023/09/12 18:11:25;;;;;;;7.30;5.22;;;;;;;20.90;78.24;100096.03;10216659;28;20058;-76
2023/09/12 18:16:30;;;;;;;5.93;5.00;;;;;;;20.84;78.55;100083.16;10223143;28;20110;-77
2023/09/12 18:21:33;;;;;;;7.75;7.03;;;;;;;20.73;78.78;100078.25;10222279;28;20054;-77
2023/09/12 18:26:36;;;;;;;8.00;6.22;;;;;;;20.68;79.52;100091.63;10225386;28;20043;-77
2023/09/12 18:31:41;;;;;;;7.65;6.95;;;;;;;20.62;79.05;100079.63;10226066;28;20121;-76
2023/09/12 18:36:44;;;;;;;6.88;6.20;;;;;;;20.51;79.52;100099.25;10227506;28;20502;-76
2023/09/12 18:41:47;;;;;;;10.88;6.40;;;;;;;20.53;80.16;100095.28;10226379;28;20046;-77
2023/09/12 18:46:51;;;;;;;7.75;6.90;;;;;;;20.70;79.84;100104.03;10230061;28;20051;-79
2023/09/12 18:51:54;;;;;;;8.95;6.68;;;;;;;20.67;79.63;100098.97;10244249;28;20055;-77
2023/09/12 18:56:59;;;;;;;7.57;6.75;;;;;;;20.68;79.40;100100.69;10247938;28;20047;-76
2023/09/12 19:02:04;;;;;;;8.93;7.18;;;;;;;20.74;79.03;100104.50;10231346;28;20109;-76
2023/09/12 19:07:07;;;;;;;7.20;6.57;;;;;;;20.71;78.40;100102.19;10228033;28;20055;-76
2023/09/12 19:12:11;;;;;;;7.70;6.75;;;;;;;20.75;78.24;100098.00;10227439;28;20051;-75
2023/09/12 19:17:15;;;;;;;7.50;6.78;;;;;;;20.78;78.72;100086.69;10222495;28;20106;-76
2023/09/12 19:22:18;;;;;;;7.50;6.78;;;;;;;20.74;78.31;100086.25;10215847;28;20126;-77
2023/09/12 19:27:20;;;;;;;5.32;4.90;;;;;;;20.67;79.22;100074.41;10220048;28;20047;-78
2023/09/12 19:32:27;;;;;;;6.93;5.80;;;;;;;20.58;80.12;100047.50;10216005;28;20047;-76
2023/09/12 19:37:30;;;;;;;5.65;5.15;;;;;;;20.53;80.54;100042.63;10208385;28;20058;-76
2023/09/12 19:42:33;;;;;;;7.53;6.82;;;;;;;20.50;80.95;100062.97;10209956;28;20055;-76
2023/09/12 19:47:37;;;;;;;8.70;7.60;;;;;;;20.19;83.28;100062.44;10211930;28;20070;-76
2023/09/12 19:53:00;;;;;;;11.57;8.88;;;;;;;19.87;86.34;100060.03;10211252;28;20047;-76
2023/09/12 19:58:04;;;;;;;9.25;8.25;;;;;;;19.81;88.13;100055.34;10219950;28;20534;-75
2023/09/12 20:03:10;;;;;;;10.65;9.52;;;;;;;19.79;89.72;100046.50;10219055;28;20070;-76
2023/09/12 20:08:14;;;;;;;8.90;8.00;;;;;;;19.83;90.66;100044.25;10218208;28;20058;-76
2023/09/12 20:13:17;;;;;;;9.40;8.50;;;;;;;19.88;90.95;100034.47;10224285;28;20042;-76
2023/09/12 20:18:21;;;;;;;10.48;8.93;;;;;;;19.85;91.37;100044.88;10224408;28;21212;-76
2023/09/12 20:23:25;;;;;;;9.75;8.15;;;;;;;19.85;92.34;100047.63;10224530;28;20059;-75
2023/09/12 20:28:29;;;;;;;10.07;8.27;;;;;;;19.36;90.18;100056.44;10227273;28;20049;-76
2023/09/12 20:33:33;;;;;;;10.80;8.40;;;;;;;19.47;91.84;100058.66;10230153;28;20520;-76
2023/09/12 20:38:36;;;;;;;11.60;10.40;;;;;;;19.29;93.81;100040.03;10246115;28;20046;-76
2023/09/12 20:43:39;;;;;;;13.50;11.88;;;;;;;18.88;95.18;100075.03;10222664;28;20059;-76
2023/09/12 20:48:45;;;;;;;16.38;14.15;;;;;;;18.65;95.93;100100.41;10227777;28;20047;-76
2023/09/12 20:53:48;;;;;;;17.25;15.43;;;;;;;18.15;98.61;100088.22;10255354;28;20055;-75
2023/09/12 20:58:51;;;;;;;16.02;12.15;;;;;;;18.64;96.26;100041.56;10233456;28;20057;-76
2023/09/12 21:03:55;;;;;;;12.10;9.68;;;;;;;18.45;95.79;100042.09;10225356;28;20073;-76
2023/09/12 21:08:58;;;;;;;13.02;10.52;;;;;;;18.29;96.44;100043.09;10218943;28;20051;-75
2023/09/12 21:14:01;;;;;;;12.68;10.50;;;;;;;18.22;96.62;100023.97;10221356;28;20047;-77
2023/09/12 21:19:06;;;;;;;14.43;12.57;;;;;;;18.07;96.86;99988.59;10213029;28;20074;-75
2023/09/12 21:24:09;;;;;;;20.42;15.20;;;;;;;18.18;97.83;99992.72;10216941;28;20062;-75
2023/09/12 21:29:12;;;;;;;23.05;18.02;;;;;;;18.26;98.07;100025.25;10219569;28;20054;-77
2023/09/12 21:34:16;;;;;;;23.83;17.08;;;;;;;18.38;98.65;100033.84;10216758;28;20051;-75
2023/09/12 21:39:19;;;;;;;20.55;15.85;;;;;;;18.50;98.72;100045.13;10222906;28;20111;-75
2023/09/12 21:44:22;;;;;;;26.52;20.33;;;;;;;18.53;98.42;100063.78;10228172;28;20043;-77
2023/09/12 21:49:26;;;;;;;27.58;20.95;;;;;;;18.54;98.06;100088.09;10225070;28;20055;-76
2023/09/12 21:54:29;;;;;;;23.27;18.60;;;;;;;18.58;98.68;100067.63;10226319;28;20054;-75
2023/09/12 21:59:31;;;;;;;17.55;12.60;;;;;;;18.36;98.16;100044.91;10226171;28;20077;-77
2023/09/12 22:04:36;;;;;;;35.67;14.57;;;;;;;18.12;99.79;100047.81;10231468;28;20046;-78
2023/09/12 22:09:39;;;;;;;19.42;11.65;;;;;;;17.95;100.00;100032.63;10227987;28;20137;-77
2023/09/12 22:14:42;;;;;;;13.45;8.18;;;;;;;17.67;100.00;100054.91;10229989;28;20082;-77
2023/09/12 22:19:46;;;;;;;11.90;8.48;;;;;;;17.34;99.03;100087.63;10234237;28;20111;-76
2023/09/12 22:24:53;;;;;;;15.48;10.93;;;;;;;17.15;100.00;100121.44;10230940;28;20121;-76
2023/09/12 22:29:56;;;;;;;24.75;14.88;;;;;;;17.07;100.00;100123.31;10273070;28;20051;-76
2023/09/12 22:35:00;;;;;;;20.35;15.90;;;;;;;17.26;100.00;100117.53;10269336;28;20083;-76
2023/09/12 22:40:05;;;;;;;21.95;16.55;;;;;;;17.61;100.00;100109.94;10255431;28;20053;-76
2023/09/12 22:45:10;;;;;;;27.23;16.90;;;;;;;17.63;100.00;100091.56;10252546;28;20039;-78
2023/09/12 22:50:14;;;;;;;34.67;13.25;;;;;;;17.54;100.00;100082.63;10264446;28;21284;-76
2023/09/12 22:55:17;;;;;;;48.83;14.40;;;;;;;17.35;100.00;100067.59;10243507;28;20063;-78
2023/09/12 23:00:20;;;;;;;16.23;11.88;;;;;;;17.43;100.00;100036.84;10235913;28;20054;-75